sensor_id;sensor_type;location;lat;lon;timestamp;P1;P2;P0
46044;PMS7003;31781;54.094;13.428;2023-04-29T00:00:32;8.00;7.00;4.75
46044;PMS7003;31781;54.094;13.428;2023-04-29T00:02:34;3.50;3.00;3.00
46044;PMS7003;31781;54.094;13.428;2023-04-29T00:04:37;7.00;7.00;4.50
46044;PMS7003;31781;54.094;13.428;2023-04-29T00:06:39;5.00;5.00;4.25
46044;PMS7003;31781;54.094;13.428;2023-04-29T00:08:41;4.00;4.00;3.75
46044;PMS7003;31781;54.094;13.428;2023-04-29T00:10:42;5.00;5.00;4.00
46044;PMS7003;31781;54.094;13.428;2023-04-29T00:12:44;5.50;5.50;4.00
46044;PMS7003;31781;54.094;13.428;2023-04-29T00:14:46;4.00;4.00;3.00
46044;PMS7003;31781;54.094;13.428;2023-04-29T00:16:49;5.50;5.50;4.75
46044;PMS7003;31781;54.094;13.428;2023-04-29T00:18:50;8.00;6.50;4.50
46044;PMS7003;31781;54.094;13.428;2023-04-29T00:20:52;5.75;5.75;4.50
46044;PMS7003;31781;54.094;13.428;2023-04-29T00:22:54;9.50;8.00;5.50
46044;PMS7003;31781;54.094;13.428;2023-04-29T00:24:55;7.75;7.75;5.25
46044;PMS7003;31781;54.094;13.428;2023-04-29T00:26:57;5.00;5.00;3.75
46044;PMS7003;31781;54.094;13.428;2023-04-29T00:28:59;4.00;4.00;3.25
46044;PMS7003;31781;54.094;13.428;2023-04-29T00:31:00;5.50;5.50;4.75
46044;PMS7003;31781;54.094;13.428;2023-04-29T00:33:03;6.00;6.00;5.00
46044;PMS7003;31781;54.094;13.428;2023-04-29T00:35:05;7.50;7.00;4.00
46044;PMS7003;31781;54.094;13.428;2023-04-29T00:37:07;6.25;6.25;5.00
46044;PMS7003;31781;54.094;13.428;2023-04-29T00:39:09;7.25;7.25;5.75
46044;PMS7003;31781;54.094;13.428;2023-04-29T00:41:10;8.00;5.50;4.25
46044;PMS7003;31781;54.094;13.428;2023-04-29T00:43:12;6.00;4.50;4.00
46044;PMS7003;31781;54.094;13.428;2023-04-29T00:45:14;5.75;5.75;4.00
46044;PMS7003;31781;54.094;13.428;2023-04-29T00:47:15;4.75;4.75;4.00
46044;PMS7003;31781;54.094;13.428;2023-04-29T00:49:18;5.00;5.00;4.25
46044;PMS7003;31781;54.094;13.428;2023-04-29T00:51:22;4.00;4.00;3.00
46044;PMS7003;31781;54.094;13.428;2023-04-29T00:53:24;6.75;6.75;5.00
46044;PMS7003;31781;54.094;13.428;2023-04-29T00:55:25;4.00;4.00;3.00
46044;PMS7003;31781;54.094;13.428;2023-04-29T00:57:28;8.00;6.25;4.25
46044;PMS7003;31781;54.094;13.428;2023-04-29T00:59:30;5.00;5.00;4.00
46044;PMS7003;31781;54.094;13.428;2023-04-29T01:01:32;5.00;5.00;4.75
46044;PMS7003;31781;54.094;13.428;2023-04-29T01:03:34;4.50;4.25;3.25
46044;PMS7003;31781;54.094;13.428;2023-04-29T01:05:37;4.00;4.00;4.00
46044;PMS7003;31781;54.094;13.428;2023-04-29T01:07:41;7.75;7.75;5.00
46044;PMS7003;31781;54.094;13.428;2023-04-29T01:09:52;8.75;8.75;7.00
46044;PMS7003;31781;54.094;13.428;2023-04-29T01:12:04;6.50;6.50;4.25
46044;PMS7003;31781;54.094;13.428;2023-04-29T01:14:13;7.00;6.75;6.00
46044;PMS7003;31781;54.094;13.428;2023-04-29T01:16:16;5.00;5.00;5.00
46044;PMS7003;31781;54.094;13.428;2023-04-29T01:18:24;8.25;7.50;4.75
46044;PMS7003;31781;54.094;13.428;2023-04-29T01:20:28;8.00;8.00;5.75
46044;PMS7003;31781;54.094;13.428;2023-04-29T01:22:32;8.00;8.00;5.00
46044;PMS7003;31781;54.094;13.428;2023-04-29T01:24:35;9.00;9.00;7.50
46044;PMS7003;31781;54.094;13.428;2023-04-29T01:26:37;7.50;5.25;4.00
46044;PMS7003;31781;54.094;13.428;2023-04-29T01:28:42;7.25;6.75;5.00
46044;PMS7003;31781;54.094;13.428;2023-04-29T01:30:49;8.00;8.00;6.25
46044;PMS7003;31781;54.094;13.428;2023-04-29T01:32:58;8.25;8.25;6.75
46044;PMS7003;31781;54.094;13.428;2023-04-29T01:35:05;5.75;5.75;5.00
46044;PMS7003;31781;54.094;13.428;2023-04-29T01:37:17;6.50;6.50;5.00
46044;PMS7003;31781;54.094;13.428;2023-04-29T01:39:25;8.75;7.50;5.50
46044;PMS7003;31781;54.094;13.428;2023-04-29T01:41:41;10.25;10.25;8.00
46044;PMS7003;31781;54.094;13.428;2023-04-29T01:43:45;8.00;8.00;5.25
46044;PMS7003;31781;54.094;13.428;2023-04-29T01:45:50;8.25;8.25;7.00
46044;PMS7003;31781;54.094;13.428;2023-04-29T01:47:54;9.75;8.50;5.50
46044;PMS7003;31781;54.094;13.428;2023-04-29T01:49:57;6.50;6.50;5.00
46044;PMS7003;31781;54.094;13.428;2023-04-29T01:51:59;9.75;9.75;8.00
46044;PMS7003;31781;54.094;13.428;2023-04-29T01:54:00;8.00;8.00;5.75
46044;PMS7003;31781;54.094;13.428;2023-04-29T01:56:02;3.25;3.25;3.00
46044;PMS7003;31781;54.094;13.428;2023-04-29T01:58:05;9.00;7.75;5.75
46044;PMS7003;31781;54.094;13.428;2023-04-29T02:00:07;4.50;3.50;1.75
46044;PMS7003;31781;54.094;13.428;2023-04-29T02:02:09;5.50;5.50;4.25
46044;PMS7003;31781;54.094;13.428;2023-04-29T02:04:11;8.00;8.00;5.75
46044;PMS7003;31781;54.094;13.428;2023-04-29T02:06:12;10.50;9.00;6.50
46044;PMS7003;31781;54.094;13.428;2023-04-29T02:08:14;9.25;9.25;6.50
46044;PMS7003;31781;54.094;13.428;2023-04-29T02:10:16;10.00;8.50;5.75
46044;PMS7003;31781;54.094;13.428;2023-04-29T02:12:18;9.00;9.00;6.25
46044;PMS7003;31781;54.094;13.428;2023-04-29T02:14:20;7.75;7.75;5.00
46044;PMS7003;31781;54.094;13.428;2023-04-29T02:16:22;12.75;10.25;8.00
46044;PMS7003;31781;54.094;13.428;2023-04-29T02:18:24;8.00;8.00;6.00
46044;PMS7003;31781;54.094;13.428;2023-04-29T02:20:26;10.50;10.00;8.00
46044;PMS7003;31781;54.094;13.428;2023-04-29T02:22:27;12.50;12.50;9.75
46044;PMS7003;31781;54.094;13.428;2023-04-29T02:24:29;10.00;10.00;8.00
46044;PMS7003;31781;54.094;13.428;2023-04-29T02:26:31;14.50;12.50;7.75
46044;PMS7003;31781;54.094;13.428;2023-04-29T02:28:32;11.50;11.00;8.50
46044;PMS7003;31781;54.094;13.428;2023-04-29T02:30:35;10.50;8.75;6.25
46044;PMS7003;31781;54.094;13.428;2023-04-29T02:32:37;10.50;10.50;8.00
46044;PMS7003;31781;54.094;13.428;2023-04-29T02:34:39;10.25;10.25;7.00
46044;PMS7003;31781;54.094;13.428;2023-04-29T02:36:40;9.00;5.25;3.00
46044;PMS7003;31781;54.094;13.428;2023-04-29T02:38:42;11.75;9.25;8.00
46044;PMS7003;31781;54.094;13.428;2023-04-29T02:40:44;9.00;9.00;6.50
46044;PMS7003;31781;54.094;13.428;2023-04-29T02:42:46;15.00;10.25;8.00
46044;PMS7003;31781;54.094;13.428;2023-04-29T02:44:48;10.50;10.50;9.00
46044;PMS7003;31781;54.094;13.428;2023-04-29T02:46:51;10.50;10.50;8.50
46044;PMS7003;31781;54.094;13.428;2023-04-29T02:48:53;15.50;13.75;9.50
46044;PMS7003;31781;54.094;13.428;2023-04-29T02:50:54;14.25;14.25;10.50
46044;PMS7003;31781;54.094;13.428;2023-04-29T02:52:56;11.50;11.50;10.00
46044;PMS7003;31781;54.094;13.428;2023-04-29T02:54:57;12.00;11.00;9.50
46044;PMS7003;31781;54.094;13.428;2023-04-29T02:56:59;10.00;10.00;7.75
46044;PMS7003;31781;54.094;13.428;2023-04-29T02:59:01;15.00;15.00;9.50
46044;PMS7003;31781;54.094;13.428;2023-04-29T03:01:02;15.00;15.00;9.75
46044;PMS7003;31781;54.094;13.428;2023-04-29T03:03:05;14.75;13.75;9.25
46044;PMS7003;31781;54.094;13.428;2023-04-29T03:05:07;16.75;16.75;12.75
46044;PMS7003;31781;54.094;13.428;2023-04-29T03:07:09;13.75;13.75;10.75
46044;PMS7003;31781;54.094;13.428;2023-04-29T03:09:11;18.50;17.00;11.00
46044;PMS7003;31781;54.094;13.428;2023-04-29T03:11:12;13.00;11.50;9.00
46044;PMS7003;31781;54.094;13.428;2023-04-29T03:13:14;15.50;14.50;10.75
46044;PMS7003;31781;54.094;13.428;2023-04-29T03:15:16;13.50;12.50;9.75
46044;PMS7003;31781;54.094;13.428;2023-04-29T03:17:17;11.50;11.50;10.25
46044;PMS7003;31781;54.094;13.428;2023-04-29T03:19:20;18.00;16.75;12.00
46044;PMS7003;31781;54.094;13.428;2023-04-29T03:21:22;15.75;15.75;11.00
46044;PMS7003;31781;54.094;13.428;2023-04-29T03:23:24;17.00;16.75;11.50
46044;PMS7003;31781;54.094;13.428;2023-04-29T03:25:25;19.25;16.50;11.50
46044;PMS7003;31781;54.094;13.428;2023-04-29T03:27:27;15.75;15.50;12.25
46044;PMS7003;31781;54.094;13.428;2023-04-29T03:29:29;16.75;16.50;13.00
46044;PMS7003;31781;54.094;13.428;2023-04-29T03:31:30;20.50;17.25;11.25
46044;PMS7003;31781;54.094;13.428;2023-04-29T03:33:32;18.25;15.25;10.00
46044;PMS7003;31781;54.094;13.428;2023-04-29T03:35:35;17.50;17.50;11.25
46044;PMS7003;31781;54.094;13.428;2023-04-29T03:37:37;15.25;15.25;11.50
46044;PMS7003;31781;54.094;13.428;2023-04-29T03:39:39;16.25;16.25;11.75
46044;PMS7003;31781;54.094;13.428;2023-04-29T03:41:41;15.50;14.25;12.00
46044;PMS7003;31781;54.094;13.428;2023-04-29T03:43:43;15.25;12.75;10.75
46044;PMS7003;31781;54.094;13.428;2023-04-29T03:45:44;19.75;19.75;13.75
46044;PMS7003;31781;54.094;13.428;2023-04-29T03:47:46;16.50;15.75;11.75
46044;PMS7003;31781;54.094;13.428;2023-04-29T03:49:48;20.25;20.25;15.50
46044;PMS7003;31781;54.094;13.428;2023-04-29T03:51:51;17.25;17.25;13.50
46044;PMS7003;31781;54.094;13.428;2023-04-29T03:53:53;5.50;5.50;2.00
46044;PMS7003;31781;54.094;13.428;2023-04-29T03:55:55;16.25;16.25;12.25
46044;PMS7003;31781;54.094;13.428;2023-04-29T03:57:57;18.25;18.25;12.25
46044;PMS7003;31781;54.094;13.428;2023-04-29T03:59:58;19.00;19.00;15.25
46044;PMS7003;31781;54.094;13.428;2023-04-29T04:02:01;18.00;16.50;10.75
46044;PMS7003;31781;54.094;13.428;2023-04-29T04:04:03;17.50;17.50;11.00
46044;PMS7003;31781;54.094;13.428;2023-04-29T04:06:05;17.75;17.75;13.50
46044;PMS7003;31781;54.094;13.428;2023-04-29T04:08:08;17.50;15.75;11.00
46044;PMS7003;31781;54.094;13.428;2023-04-29T04:10:09;18.00;18.00;14.50
46044;PMS7003;31781;54.094;13.428;2023-04-29T04:12:11;16.75;16.75;14.00
46044;PMS7003;31781;54.094;13.428;2023-04-29T04:14:13;23.50;22.00;16.00
46044;PMS7003;31781;54.094;13.428;2023-04-29T04:16:15;20.25;20.25;13.75
46044;PMS7003;31781;54.094;13.428;2023-04-29T04:18:16;24.25;22.75;17.50
46044;PMS7003;31781;54.094;13.428;2023-04-29T04:20:18;16.75;16.75;14.75
46044;PMS7003;31781;54.094;13.428;2023-04-29T04:22:20;24.00;19.25;14.50
46044;PMS7003;31781;54.094;13.428;2023-04-29T04:24:23;20.75;20.75;15.75
46044;PMS7003;31781;54.094;13.428;2023-04-29T04:26:24;18.00;18.00;14.50
46044;PMS7003;31781;54.094;13.428;2023-04-29T04:28:26;23.00;23.00;17.50
46044;PMS7003;31781;54.094;13.428;2023-04-29T04:30:28;19.25;18.50;14.25
46044;PMS7003;31781;54.094;13.428;2023-04-29T04:32:29;18.25;16.50;10.25
46044;PMS7003;31781;54.094;13.428;2023-04-29T04:34:31;18.50;18.50;15.00
46044;PMS7003;31781;54.094;13.428;2023-04-29T04:36:32;20.50;20.50;16.75
46044;PMS7003;31781;54.094;13.428;2023-04-29T04:38:34;22.25;18.50;15.00
46044;PMS7003;31781;54.094;13.428;2023-04-29T04:40:37;20.25;18.25;14.75
46044;PMS7003;31781;54.094;13.428;2023-04-29T04:42:41;20.75;20.00;16.50
46044;PMS7003;31781;54.094;13.428;2023-04-29T04:44:42;20.50;20.50;16.25
46044;PMS7003;31781;54.094;13.428;2023-04-29T04:46:44;28.75;23.25;15.25
46044;PMS7003;31781;54.094;13.428;2023-04-29T04:48:46;24.50;24.50;16.00
46044;PMS7003;31781;54.094;13.428;2023-04-29T04:50:47;23.25;23.25;15.75
46044;PMS7003;31781;54.094;13.428;2023-04-29T04:52:49;25.00;25.00;17.75
46044;PMS7003;31781;54.094;13.428;2023-04-29T04:54:51;24.50;21.75;16.75
46044;PMS7003;31781;54.094;13.428;2023-04-29T04:56:54;25.50;23.75;16.50
46044;PMS7003;31781;54.094;13.428;2023-04-29T04:58:55;26.50;23.75;18.00
46044;PMS7003;31781;54.094;13.428;2023-04-29T05:00:57;18.25;18.25;14.75
46044;PMS7003;31781;54.094;13.428;2023-04-29T05:02:59;19.25;18.00;15.50
46044;PMS7003;31781;54.094;13.428;2023-04-29T05:05:01;24.75;21.00;16.00
46044;PMS7003;31781;54.094;13.428;2023-04-29T05:07:02;26.00;25.00;17.00
46044;PMS7003;31781;54.094;13.428;2023-04-29T05:09:04;24.00;24.00;17.25
46044;PMS7003;31781;54.094;13.428;2023-04-29T05:11:05;23.75;20.75;17.25
46044;PMS7003;31781;54.094;13.428;2023-04-29T05:13:09;24.25;23.25;17.25
46044;PMS7003;31781;54.094;13.428;2023-04-29T05:15:10;26.33;25.33;17.00
46044;PMS7003;31781;54.094;13.428;2023-04-29T05:17:12;25.50;24.50;18.50
46044;PMS7003;31781;54.094;13.428;2023-04-29T05:19:14;29.00;25.75;18.50
46044;PMS7003;31781;54.094;13.428;2023-04-29T05:21:15;25.67;25.00;19.00
46044;PMS7003;31781;54.094;13.428;2023-04-29T05:23:18;20.67;20.67;13.00
46044;PMS7003;31781;54.094;13.428;2023-04-29T05:25:19;26.50;26.50;19.25
46044;PMS7003;31781;54.094;13.428;2023-04-29T05:27:21;18.67;16.00;11.00
46044;PMS7003;31781;54.094;13.428;2023-04-29T05:29:24;20.75;20.75;17.00
46044;PMS7003;31781;54.094;13.428;2023-04-29T05:31:26;27.00;26.00;15.75
46044;PMS7003;31781;54.094;13.428;2023-04-29T05:33:28;24.25;24.25;16.50
46044;PMS7003;31781;54.094;13.428;2023-04-29T05:35:29;25.00;25.00;17.00
46044;PMS7003;31781;54.094;13.428;2023-04-29T05:37:31;20.00;20.00;15.00
46044;PMS7003;31781;54.094;13.428;2023-04-29T05:39:33;22.67;22.67;16.33
46044;PMS7003;31781;54.094;13.428;2023-04-29T05:41:34;28.75;27.00;18.25
46044;PMS7003;31781;54.094;13.428;2023-04-29T05:43:36;29.00;25.75;17.50
46044;PMS7003;31781;54.094;13.428;2023-04-29T05:45:39;26.00;24.00;17.50
46044;PMS7003;31781;54.094;13.428;2023-04-29T05:47:40;26.50;26.50;18.00
46044;PMS7003;31781;54.094;13.428;2023-04-29T05:49:42;24.00;23.50;16.50
46044;PMS7003;31781;54.094;13.428;2023-04-29T05:51:44;19.25;19.25;16.50
46044;PMS7003;31781;54.094;13.428;2023-04-29T05:53:45;25.00;23.00;17.50
46044;PMS7003;31781;54.094;13.428;2023-04-29T05:55:47;27.25;22.25;15.75
46044;PMS7003;31781;54.094;13.428;2023-04-29T05:57:51;26.50;22.75;15.25
46044;PMS7003;31781;54.094;13.428;2023-04-29T05:59:52;22.25;20.75;17.25
46044;PMS7003;31781;54.094;13.428;2023-04-29T06:01:56;25.00;21.50;17.25
46044;PMS7003;31781;54.094;13.428;2023-04-29T06:03:57;19.00;18.75;13.25
46044;PMS7003;31781;54.094;13.428;2023-04-29T06:05:59;20.25;20.25;16.00
46044;PMS7003;31781;54.094;13.428;2023-04-29T06:08:01;26.25;23.00;15.25
46044;PMS7003;31781;54.094;13.428;2023-04-29T06:10:04;21.25;19.50;16.25
46044;PMS7003;31781;54.094;13.428;2023-04-29T06:12:07;24.50;24.50;16.25
46044;PMS7003;31781;54.094;13.428;2023-04-29T06:14:08;18.50;18.50;12.50
46044;PMS7003;31781;54.094;13.428;2023-04-29T06:16:10;9.25;6.00;1.00
46044;PMS7003;31781;54.094;13.428;2023-04-29T06:18:14;23.50;22.50;17.00
46044;PMS7003;31781;54.094;13.428;2023-04-29T06:20:15;29.50;24.75;17.75
46044;PMS7003;31781;54.094;13.428;2023-04-29T06:22:18;24.75;24.75;18.00
46044;PMS7003;31781;54.094;13.428;2023-04-29T06:24:20;26.00;23.25;18.00
46044;PMS7003;31781;54.094;13.428;2023-04-29T06:26:21;21.00;21.00;14.25
46044;PMS7003;31781;54.094;13.428;2023-04-29T06:28:23;25.00;24.75;18.50
46044;PMS7003;31781;54.094;13.428;2023-04-29T06:30:25;24.25;21.25;16.00
46044;PMS7003;31781;54.094;13.428;2023-04-29T06:32:26;24.75;24.75;17.50
46044;PMS7003;31781;54.094;13.428;2023-04-29T06:34:29;23.75;23.75;18.00
46044;PMS7003;31781;54.094;13.428;2023-04-29T06:36:31;29.75;25.50;17.00
46044;PMS7003;31781;54.094;13.428;2023-04-29T06:38:33;23.75;20.25;17.25
46044;PMS7003;31781;54.094;13.428;2023-04-29T06:40:34;25.00;23.75;16.00
46044;PMS7003;31781;54.094;13.428;2023-04-29T06:42:36;24.75;23.00;16.75
46044;PMS7003;31781;54.094;13.428;2023-04-29T06:44:38;26.75;25.25;17.75
46044;PMS7003;31781;54.094;13.428;2023-04-29T06:46:39;19.50;19.50;13.50
46044;PMS7003;31781;54.094;13.428;2023-04-29T06:48:41;19.25;19.25;13.00
46044;PMS7003;31781;54.094;13.428;2023-04-29T06:50:49;23.50;22.25;15.00
46044;PMS7003;31781;54.094;13.428;2023-04-29T06:52:51;16.25;16.25;13.25
46044;PMS7003;31781;54.094;13.428;2023-04-29T06:54:53;23.75;22.00;16.75
46044;PMS7003;31781;54.094;13.428;2023-04-29T06:56:54;13.75;13.25;12.00
46044;PMS7003;31781;54.094;13.428;2023-04-29T06:58:56;23.50;20.75;16.25
46044;PMS7003;31781;54.094;13.428;2023-04-29T07:00:58;23.25;21.00;13.50
46044;PMS7003;31781;54.094;13.428;2023-04-29T07:02:59;21.00;21.00;16.25
46044;PMS7003;31781;54.094;13.428;2023-04-29T07:05:01;23.50;21.50;15.00
46044;PMS7003;31781;54.094;13.428;2023-04-29T07:07:04;20.75;20.75;14.00
46044;PMS7003;31781;54.094;13.428;2023-04-29T07:09:06;19.50;18.50;14.50
46044;PMS7003;31781;54.094;13.428;2023-04-29T07:11:07;21.00;21.00;15.25
46044;PMS7003;31781;54.094;13.428;2023-04-29T07:13:09;14.50;11.75;5.00
46044;PMS7003;31781;54.094;13.428;2023-04-29T07:15:11;21.00;21.00;14.50
46044;PMS7003;31781;54.094;13.428;2023-04-29T07:17:12;19.75;19.50;15.25
46044;PMS7003;31781;54.094;13.428;2023-04-29T07:19:14;21.50;21.50;16.75
46044;PMS7003;31781;54.094;13.428;2023-04-29T07:21:16;21.25;21.25;17.50
46044;PMS7003;31781;54.094;13.428;2023-04-29T07:23:19;20.00;20.00;14.25
46044;PMS7003;31781;54.094;13.428;2023-04-29T07:25:20;20.75;19.25;14.00
46044;PMS7003;31781;54.094;13.428;2023-04-29T07:27:22;21.75;21.50;15.50
46044;PMS7003;31781;54.094;13.428;2023-04-29T07:29:24;28.75;25.50;16.25
46044;PMS7003;31781;54.094;13.428;2023-04-29T07:31:25;20.75;19.75;14.50
46044;PMS7003;31781;54.094;13.428;2023-04-29T07:33:27;20.50;20.50;13.75
46044;PMS7003;31781;54.094;13.428;2023-04-29T07:35:29;19.75;18.50;12.50
46044;PMS7003;31781;54.094;13.428;2023-04-29T07:37:30;25.25;22.75;16.00
46044;PMS7003;31781;54.094;13.428;2023-04-29T07:39:33;19.75;19.75;14.00
46044;PMS7003;31781;54.094;13.428;2023-04-29T07:41:35;23.00;21.25;15.00
46044;PMS7003;31781;54.094;13.428;2023-04-29T07:43:36;21.75;21.75;13.75
46044;PMS7003;31781;54.094;13.428;2023-04-29T07:45:41;19.00;19.00;14.75
46044;PMS7003;31781;54.094;13.428;2023-04-29T07:47:42;23.00;21.00;15.00
46044;PMS7003;31781;54.094;13.428;2023-04-29T07:49:44;20.00;19.00;14.75
46044;PMS7003;31781;54.094;13.428;2023-04-29T07:51:46;20.50;20.50;14.50
46044;PMS7003;31781;54.094;13.428;2023-04-29T07:53:47;19.75;19.25;12.75
46044;PMS7003;31781;54.094;13.428;2023-04-29T07:55:50;19.00;19.00;14.00
46044;PMS7003;31781;54.094;13.428;2023-04-29T07:57:52;21.50;18.50;13.50
46044;PMS7003;31781;54.094;13.428;2023-04-29T07:59:54;22.75;21.00;14.25
46044;PMS7003;31781;54.094;13.428;2023-04-29T08:01:55;29.00;25.50;15.50
46044;PMS7003;31781;54.094;13.428;2023-04-29T08:03:57;21.50;20.00;14.00
46044;PMS7003;31781;54.094;13.428;2023-04-29T08:05:59;22.25;21.00;13.25
46044;PMS7003;31781;54.094;13.428;2023-04-29T08:08:02;19.75;19.75;15.25
46044;PMS7003;31781;54.094;13.428;2023-04-29T08:10:04;19.75;19.75;13.00
46044;PMS7003;31781;54.094;13.428;2023-04-29T08:12:08;20.75;19.75;14.00
46044;PMS7003;31781;54.094;13.428;2023-04-29T08:14:10;22.25;22.25;17.50
46044;PMS7003;31781;54.094;13.428;2023-04-29T08:16:11;23.25;21.75;16.25
46044;PMS7003;31781;54.094;13.428;2023-04-29T08:18:13;22.75;20.75;15.00
46044;PMS7003;31781;54.094;13.428;2023-04-29T08:20:15;22.00;20.25;14.75
46044;PMS7003;31781;54.094;13.428;2023-04-29T08:22:17;24.50;22.00;15.75
46044;PMS7003;31781;54.094;13.428;2023-04-29T08:24:19;22.00;21.00;15.50
46044;PMS7003;31781;54.094;13.428;2023-04-29T08:26:21;22.75;22.75;15.75
46044;PMS7003;31781;54.094;13.428;2023-04-29T08:28:25;19.25;17.50;11.25
46044;PMS7003;31781;54.094;13.428;2023-04-29T08:30:27;23.25;22.00;14.50
46044;PMS7003;31781;54.094;13.428;2023-04-29T08:32:28;21.00;20.00;13.50
46044;PMS7003;31781;54.094;13.428;2023-04-29T08:34:30;20.75;20.75;13.00
46044;PMS7003;31781;54.094;13.428;2023-04-29T08:36:32;23.00;21.75;15.00
46044;PMS7003;31781;54.094;13.428;2023-04-29T08:38:34;16.25;15.50;10.00
46044;PMS7003;31781;54.094;13.428;2023-04-29T08:40:36;19.75;18.25;12.25
46044;PMS7003;31781;54.094;13.428;2023-04-29T08:42:43;19.50;17.00;13.75
46044;PMS7003;31781;54.094;13.428;2023-04-29T08:44:50;21.50;20.25;13.75
46044;PMS7003;31781;54.094;13.428;2023-04-29T08:46:53;18.00;18.00;13.50
46044;PMS7003;31781;54.094;13.428;2023-04-29T08:48:56;17.25;17.25;13.00
46044;PMS7003;31781;54.094;13.428;2023-04-29T08:50:58;21.25;21.25;14.25
46044;PMS7003;31781;54.094;13.428;2023-04-29T08:53:00;22.75;19.25;14.75
46044;PMS7003;31781;54.094;13.428;2023-04-29T08:55:02;16.50;15.50;12.50
46044;PMS7003;31781;54.094;13.428;2023-04-29T08:57:04;17.75;16.25;11.50
46044;PMS7003;31781;54.094;13.428;2023-04-29T08:59:08;20.25;20.25;13.75
46044;PMS7003;31781;54.094;13.428;2023-04-29T09:01:12;17.50;16.75;12.75
46044;PMS7003;31781;54.094;13.428;2023-04-29T09:03:16;22.25;20.50;13.50
46044;PMS7003;31781;54.094;13.428;2023-04-29T09:05:22;18.25;18.25;14.00
46044;PMS7003;31781;54.094;13.428;2023-04-29T09:07:25;17.25;16.50;11.25
46044;PMS7003;31781;54.094;13.428;2023-04-29T09:09:28;26.00;22.00;16.75
46044;PMS7003;31781;54.094;13.428;2023-04-29T09:11:30;20.00;16.50;9.00
46044;PMS7003;31781;54.094;13.428;2023-04-29T09:13:32;21.00;18.50;13.00
46044;PMS7003;31781;54.094;13.428;2023-04-29T09:15:34;16.00;16.00;13.25
46044;PMS7003;31781;54.094;13.428;2023-04-29T09:17:38;19.75;17.00;12.25
46044;PMS7003;31781;54.094;13.428;2023-04-29T09:19:41;17.25;16.00;11.75
46044;PMS7003;31781;54.094;13.428;2023-04-29T09:21:45;21.50;19.00;11.00
46044;PMS7003;31781;54.094;13.428;2023-04-29T09:23:55;19.50;19.50;14.50
46044;PMS7003;31781;54.094;13.428;2023-04-29T09:25:57;20.25;20.25;12.00
46044;PMS7003;31781;54.094;13.428;2023-04-29T09:28:01;20.50;17.75;12.50
46044;PMS7003;31781;54.094;13.428;2023-04-29T09:30:15;17.25;17.25;12.25
46044;PMS7003;31781;54.094;13.428;2023-04-29T09:32:17;15.00;15.00;11.25
46044;PMS7003;31781;54.094;13.428;2023-04-29T09:34:30;20.50;20.50;14.25
46044;PMS7003;31781;54.094;13.428;2023-04-29T09:36:39;18.25;18.25;12.25
46044;PMS7003;31781;54.094;13.428;2023-04-29T09:38:52;21.00;19.00;14.50
46044;PMS7003;31781;54.094;13.428;2023-04-29T09:40:54;21.50;20.75;12.25
46044;PMS7003;31781;54.094;13.428;2023-04-29T09:43:00;18.00;16.50;13.50
46044;PMS7003;31781;54.094;13.428;2023-04-29T09:45:02;17.75;17.75;13.25
46044;PMS7003;31781;54.094;13.428;2023-04-29T09:47:04;16.50;16.50;13.25
46044;PMS7003;31781;54.094;13.428;2023-04-29T09:49:20;14.25;14.25;11.50
46044;PMS7003;31781;54.094;13.428;2023-04-29T09:51:24;16.75;16.75;12.00
46044;PMS7003;31781;54.094;13.428;2023-04-29T09:53:27;17.00;17.00;13.00
46044;PMS7003;31781;54.094;13.428;2023-04-29T09:55:29;16.25;16.25;12.00
46044;PMS7003;31781;54.094;13.428;2023-04-29T09:57:38;18.00;16.50;12.00
46044;PMS7003;31781;54.094;13.428;2023-04-29T09:59:42;17.00;17.00;13.00
46044;PMS7003;31781;54.094;13.428;2023-04-29T10:01:45;17.75;15.50;11.75
46044;PMS7003;31781;54.094;13.428;2023-04-29T10:03:49;18.75;18.75;12.00
46044;PMS7003;31781;54.094;13.428;2023-04-29T10:05:54;20.00;19.50;13.00
46044;PMS7003;31781;54.094;13.428;2023-04-29T10:07:58;17.75;17.75;13.00
46044;PMS7003;31781;54.094;13.428;2023-04-29T10:10:01;17.00;17.00;12.25
46044;PMS7003;31781;54.094;13.428;2023-04-29T10:12:06;13.25;10.25;8.00
46044;PMS7003;31781;54.094;13.428;2023-04-29T10:14:09;15.75;15.75;12.00
46044;PMS7003;31781;54.094;13.428;2023-04-29T10:16:16;20.00;16.75;13.25
46044;PMS7003;31781;54.094;13.428;2023-04-29T10:18:29;15.50;14.25;11.00
46044;PMS7003;31781;54.094;13.428;2023-04-29T10:20:36;14.00;13.50;9.25
46044;PMS7003;31781;54.094;13.428;2023-04-29T10:22:44;15.25;14.00;10.25
46044;PMS7003;31781;54.094;13.428;2023-04-29T10:24:48;14.75;14.75;10.50
46044;PMS7003;31781;54.094;13.428;2023-04-29T10:26:54;11.50;11.50;9.00
46044;PMS7003;31781;54.094;13.428;2023-04-29T10:28:58;11.80;11.80;9.60
46044;PMS7003;31781;54.094;13.428;2023-04-29T10:31:00;12.00;12.00;9.00
46044;PMS7003;31781;54.094;13.428;2023-04-29T10:33:03;12.20;12.20;9.20
46044;PMS7003;31781;54.094;13.428;2023-04-29T10:35:07;12.20;12.20;9.40
46044;PMS7003;31781;54.094;13.428;2023-04-29T10:37:10;9.60;9.60;8.20
46044;PMS7003;31781;54.094;13.428;2023-04-29T10:39:15;12.40;12.40;9.60
46044;PMS7003;31781;54.094;13.428;2023-04-29T10:41:29;14.20;12.00;10.60
46044;PMS7003;31781;54.094;13.428;2023-04-29T10:43:34;11.00;9.40;7.60
46044;PMS7003;31781;54.094;13.428;2023-04-29T10:45:37;13.80;13.80;10.40
46044;PMS7003;31781;54.094;13.428;2023-04-29T10:47:39;11.00;11.00;8.40
46044;PMS7003;31781;54.094;13.428;2023-04-29T10:49:41;8.60;8.40;7.00
46044;PMS7003;31781;54.094;13.428;2023-04-29T10:52:03;9.60;7.80;6.40
46044;PMS7003;31781;54.094;13.428;2023-04-29T10:54:06;11.00;9.00;7.00
46044;PMS7003;31781;54.094;13.428;2023-04-29T10:56:09;12.80;11.60;9.20
46044;PMS7003;31781;54.094;13.428;2023-04-29T11:00:36;9.40;9.40;7.80
46044;PMS7003;31781;54.094;13.428;2023-04-29T11:02:38;9.60;9.60;7.80
46044;PMS7003;31781;54.094;13.428;2023-04-29T11:07:09;9.40;8.00;6.20
46044;PMS7003;31781;54.094;13.428;2023-04-29T11:09:27;8.80;8.80;6.80
46044;PMS7003;31781;54.094;13.428;2023-04-29T11:11:42;7.80;7.80;7.00
46044;PMS7003;31781;54.094;13.428;2023-04-29T11:13:47;10.00;10.00;8.20
46044;PMS7003;31781;54.094;13.428;2023-04-29T11:15:49;11.80;9.00;6.40
46044;PMS7003;31781;54.094;13.428;2023-04-29T11:17:51;7.40;7.20;6.20
46044;PMS7003;31781;54.094;13.428;2023-04-29T11:19:53;7.20;7.20;6.00
46044;PMS7003;31781;54.094;13.428;2023-04-29T11:22:09;11.20;8.40;6.80
46044;PMS7003;31781;54.094;13.428;2023-04-29T11:24:13;8.50;8.00;5.25
46044;PMS7003;31781;54.094;13.428;2023-04-29T11:26:17;7.00;7.00;5.25
46044;PMS7003;31781;54.094;13.428;2023-04-29T11:28:19;7.50;7.50;6.25
46044;PMS7003;31781;54.094;13.428;2023-04-29T11:30:24;6.75;6.75;5.25
46044;PMS7003;31781;54.094;13.428;2023-04-29T11:32:29;5.75;5.75;5.00